createdAt,value
2023-02-25T00:00:53.327Z,2.45
2023-02-25T00:03:20.555Z,3.03
2023-02-25T00:05:47.732Z,2.80
2023-02-25T00:08:16.277Z,2.53
2023-02-25T00:10:43.464Z,2.40
2023-02-25T00:13:18.048Z,2.25
2023-02-25T00:15:45.739Z,2.05
2023-02-25T00:18:13.201Z,2.13
2023-02-25T00:20:40.436Z,3.00
2023-02-25T00:23:07.688Z,2.47
2023-02-25T00:25:36.317Z,3.47
2023-02-25T00:28:03.558Z,2.65
2023-02-25T00:30:30.711Z,2.72
2023-02-25T00:32:58.019Z,2.97
2023-02-25T00:35:25.351Z,2.80
2023-02-25T00:37:54.375Z,3.58
2023-02-25T00:40:24.259Z,2.90
2023-02-25T00:42:52.850Z,3.30
2023-02-25T00:45:20.021Z,3.40
2023-02-25T00:47:47.211Z,3.92
2023-02-25T00:50:14.392Z,2.80
2023-02-25T00:52:41.692Z,3.03
2023-02-25T00:55:09.787Z,2.65
2023-02-25T00:57:37.028Z,3.00
2023-02-25T01:00:07.656Z,3.20
2023-02-25T01:02:35.189Z,3.58
2023-02-25T01:05:02.773Z,3.40
2023-02-25T01:07:30.181Z,3.67
2023-02-25T01:09:57.407Z,2.72
2023-02-25T01:12:24.698Z,2.70
2023-02-25T01:14:55.536Z,3.10
2023-02-25T01:17:24.245Z,3.17
2023-02-25T01:19:51.486Z,2.92
2023-02-25T01:22:18.800Z,3.38
2023-02-25T01:24:46.062Z,3.10
2023-02-25T01:27:13.889Z,2.63
2023-02-25T01:29:43.443Z,2.70
2023-02-25T01:32:13.686Z,3.30
2023-02-25T01:34:42.534Z,2.70
2023-02-25T01:37:10.119Z,2.50
2023-02-25T01:39:39.808Z,2.25
2023-02-25T01:42:13.596Z,3.45
2023-02-25T01:45:13.930Z,2.83
2023-02-25T01:47:41.705Z,2.42
2023-02-25T01:50:10.982Z,2.15
2023-02-25T01:52:40.549Z,2.65
2023-02-25T01:55:10.350Z,2.22
2023-02-25T01:57:37.597Z,2.40
2023-02-25T02:00:08.986Z,3.30
2023-02-25T02:02:40.989Z,2.15
2023-02-25T02:05:12.032Z,2.05
2023-02-25T02:07:39.215Z,2.45
2023-02-25T02:10:07.026Z,2.88
2023-02-25T02:12:38.682Z,2.30
2023-02-25T02:15:09.280Z,2.33
2023-02-25T02:17:42.267Z,2.60
2023-02-25T02:20:16.198Z,2.50
2023-02-25T02:22:54.487Z,2.80
2023-02-25T02:26:09.012Z,2.58
2023-02-25T02:29:12.096Z,2.70
2023-02-25T02:31:55.230Z,4.05
2023-02-25T02:34:35.918Z,2.70
2023-02-25T02:37:13.268Z,3.10
2023-02-25T02:39:52.390Z,4.07
2023-02-25T02:42:29.086Z,4.05
2023-02-25T02:45:03.619Z,3.28
2023-02-25T02:47:35.620Z,3.53
2023-02-25T02:50:07.588Z,3.20
2023-02-25T02:52:41.610Z,3.55
2023-02-25T02:55:18.202Z,4.05
2023-02-25T02:57:45.704Z,3.70
2023-02-25T03:00:16.462Z,3.85
2023-02-25T03:02:50.594Z,4.78
2023-02-25T03:05:21.885Z,4.40
2023-02-25T03:07:55.570Z,4.03
2023-02-25T03:10:23.228Z,3.30
2023-02-25T03:12:50.604Z,3.53
2023-02-25T03:15:17.956Z,3.72
2023-02-25T03:17:53.240Z,3.78
2023-02-25T03:20:26.718Z,3.70
2023-02-25T03:22:56.408Z,4.43
2023-02-25T03:25:26.308Z,4.13
2023-02-25T03:27:56.637Z,3.47
2023-02-25T03:30:30.942Z,3.42
2023-02-25T03:33:05.362Z,3.80
2023-02-25T03:35:35.100Z,3.78
2023-02-25T03:38:05.509Z,4.13
2023-02-25T03:40:37.287Z,4.20
2023-02-25T03:43:08.704Z,4.28
2023-02-25T03:45:38.144Z,4.00
2023-02-25T03:48:09.152Z,4.32
2023-02-25T03:50:42.539Z,3.58
2023-02-25T03:53:12.164Z,3.80
2023-02-25T03:55:55.320Z,3.78
2023-02-25T03:58:22.881Z,3.65
2023-02-25T04:00:56.585Z,4.18
2023-02-25T04:03:26.593Z,3.38
2023-02-25T04:05:53.790Z,3.70
2023-02-25T04:08:21.026Z,3.97
2023-02-25T04:10:48.275Z,3.45
2023-02-25T04:13:17.448Z,3.83
2023-02-25T04:15:45.462Z,3.28
2023-02-25T04:18:12.946Z,3.30
2023-02-25T04:20:42.726Z,3.05
2023-02-25T04:23:13.439Z,3.33
2023-02-25T04:25:41.044Z,3.38
2023-02-25T04:28:08.191Z,3.28
2023-02-25T04:30:35.496Z,3.42
2023-02-25T04:33:03.166Z,3.15
2023-02-25T04:35:30.349Z,3.47
2023-02-25T04:37:58.927Z,3.65
2023-02-25T04:40:26.268Z,5.93
2023-02-25T04:42:53.532Z,3.90
2023-02-25T04:45:21.167Z,3.38
2023-02-25T04:47:48.337Z,3.33
2023-02-25T04:50:15.494Z,3.42
2023-02-25T04:52:42.678Z,3.58
2023-02-25T04:55:11.462Z,3.80
2023-02-25T04:57:39.174Z,3.40
2023-02-25T05:00:08.102Z,3.55
2023-02-25T05:02:35.335Z,3.97
2023-02-25T05:05:02.740Z,3.78
2023-02-25T05:07:29.974Z,3.58
2023-02-25T05:09:57.216Z,3.70
2023-02-25T05:12:25.755Z,4.30
2023-02-25T05:14:52.930Z,4.05
2023-02-25T05:17:20.166Z,4.60
2023-02-25T05:19:47.370Z,3.92
2023-02-25T05:22:14.587Z,3.83
2023-02-25T05:24:42.000Z,4.60
2023-02-25T05:27:09.176Z,4.70
2023-02-25T05:29:37.897Z,5.00
2023-02-25T05:32:05.625Z,4.25
2023-02-25T05:34:33.142Z,4.40
2023-02-25T05:37:00.367Z,4.43
2023-02-25T05:39:27.583Z,4.05
2023-02-25T05:41:54.767Z,4.30
2023-02-25T05:44:21.944Z,4.68
2023-02-25T05:46:50.558Z,4.53
2023-02-25T05:49:17.869Z,5.40
2023-02-25T05:51:45.078Z,3.70
2023-02-25T05:54:12.320Z,4.30
2023-02-25T05:56:39.484Z,4.22
2023-02-25T05:59:06.674Z,6.32
2023-02-25T06:01:33.876Z,5.57
2023-02-25T06:04:02.486Z,4.57
2023-02-25T06:06:31.092Z,4.65
2023-02-25T06:08:58.672Z,4.72
2023-02-25T06:11:28.583Z,4.60
2023-02-25T06:13:57.648Z,4.75
2023-02-25T06:16:26.307Z,4.30
2023-02-25T06:18:53.822Z,4.88
2023-02-25T06:21:22.361Z,4.90
2023-02-25T06:23:49.905Z,5.55
2023-02-25T06:26:17.133Z,4.75
2023-02-25T06:28:44.734Z,4.80
2023-02-25T06:31:14.466Z,4.55
2023-02-25T06:33:41.739Z,4.55
2023-02-25T06:36:10.337Z,4.28
2023-02-25T06:38:39.224Z,4.72
2023-02-25T06:41:07.420Z,4.35
2023-02-25T06:43:35.497Z,4.88
2023-02-25T06:46:07.595Z,5.07
2023-02-25T06:48:34.865Z,4.88
2023-02-25T06:51:02.271Z,5.40
2023-02-25T06:53:29.735Z,4.40
2023-02-25T06:55:59.536Z,4.55
2023-02-25T06:58:26.728Z,4.10
2023-02-25T07:00:53.953Z,4.53
2023-02-25T07:03:22.130Z,5.18
2023-02-25T07:05:49.560Z,4.55
2023-02-25T07:08:16.714Z,4.05
2023-02-25T07:10:43.883Z,4.35
2023-02-25T07:13:13.262Z,5.00
2023-02-25T07:15:40.648Z,5.03
2023-02-25T07:18:07.877Z,4.60
2023-02-25T07:20:35.159Z,5.57
2023-02-25T07:23:02.877Z,4.90
2023-02-25T07:25:30.274Z,5.00
2023-02-25T07:27:57.514Z,4.80
2023-02-25T07:30:26.156Z,4.95
2023-02-25T07:32:53.699Z,4.53
2023-02-25T07:35:21.058Z,4.28
2023-02-25T07:37:48.224Z,4.88
2023-02-25T07:40:15.523Z,4.32
2023-02-25T07:42:43.156Z,5.13
2023-02-25T07:45:12.212Z,4.65
2023-02-25T07:47:40.772Z,4.45
2023-02-25T07:50:12.688Z,4.18
2023-02-25T07:52:40.308Z,4.43
2023-02-25T07:55:08.092Z,4.28
2023-02-25T07:57:35.463Z,4.75
2023-02-25T08:00:04.151Z,6.15
2023-02-25T08:02:40.879Z,5.72
2023-02-25T08:05:08.770Z,5.88
2023-02-25T08:07:36.028Z,4.65
2023-02-25T08:10:03.945Z,4.75
2023-02-25T08:12:31.753Z,4.95
2023-02-25T08:14:58.910Z,4.80
2023-02-25T08:17:26.176Z,4.88
2023-02-25T08:19:54.703Z,5.13
2023-02-25T08:22:22.079Z,6.32
2023-02-25T08:24:49.202Z,5.05
2023-02-25T08:27:16.397Z,8.10
2023-02-25T08:29:43.601Z,5.47
2023-02-25T08:32:10.921Z,5.32
2023-02-25T08:34:38.366Z,5.65
2023-02-25T08:37:08.729Z,5.38
2023-02-25T08:39:35.940Z,5.95
2023-02-25T08:42:03.594Z,6.28
2023-02-25T08:44:30.810Z,5.07
2023-02-25T08:47:01.670Z,6.10
2023-02-25T08:49:29.808Z,6.05
2023-02-25T08:51:56.981Z,5.72
2023-02-25T08:54:25.514Z,5.57
2023-02-25T08:56:52.732Z,5.97
2023-02-25T08:59:19.885Z,6.38
2023-02-25T09:01:47.214Z,5.50
2023-02-25T09:04:16.571Z,5.32
2023-02-25T09:06:44.752Z,5.28
2023-02-25T09:09:11.910Z,5.03
2023-02-25T09:11:40.634Z,4.78
2023-02-25T09:14:07.996Z,4.88
2023-02-25T09:16:35.196Z,4.80
2023-02-25T09:19:02.749Z,4.68
2023-02-25T09:21:30.116Z,4.60
2023-02-25T09:23:58.116Z,5.30
2023-02-25T09:26:25.574Z,4.80
2023-02-25T09:28:54.490Z,4.75
2023-02-25T09:31:22.144Z,4.53
2023-02-25T09:33:49.603Z,5.30
2023-02-25T09:36:18.552Z,4.65
2023-02-25T09:38:47.621Z,4.68
2023-02-25T09:41:24.525Z,4.50
2023-02-25T09:44:02.624Z,5.15
2023-02-25T09:46:32.112Z,4.68
2023-02-25T09:49:03.289Z,4.78
2023-02-25T09:51:34.801Z,7.05
2023-02-25T09:54:15.886Z,5.80
2023-02-25T09:56:43.200Z,5.03
2023-02-25T09:59:15.794Z,6.25
2023-02-25T10:01:49.150Z,6.50
2023-02-25T10:04:23.161Z,6.20
2023-02-25T10:06:51.652Z,6.10
2023-02-25T10:09:26.336Z,5.53
2023-02-25T10:12:01.657Z,6.18
2023-02-25T10:15:14.546Z,5.75
2023-02-25T10:17:54.072Z,5.97
2023-02-25T10:20:43.207Z,5.15
2023-02-25T10:23:24.807Z,4.00
2023-02-25T10:25:58.368Z,4.88
2023-02-25T10:28:27.852Z,4.90
2023-02-25T10:31:01.946Z,4.93
2023-02-25T10:33:34.640Z,4.50
2023-02-25T10:36:08.671Z,5.55
2023-02-25T10:38:39.205Z,5.32
2023-02-25T10:41:06.906Z,5.32
2023-02-25T10:43:34.731Z,3.13
2023-02-25T10:46:07.372Z,1.52
2023-02-25T10:48:35.405Z,2.10
2023-02-25T10:51:07.360Z,3.35
2023-02-25T10:53:34.532Z,1.88
2023-02-25T10:56:02.693Z,2.42
2023-02-25T10:58:37.414Z,2.80
2023-02-25T11:01:11.934Z,3.08
2023-02-25T11:03:45.944Z,3.88
2023-02-25T11:06:20.343Z,2.35
2023-02-25T11:08:49.007Z,1.85
2023-02-25T11:11:19.834Z,1.58
2023-02-25T11:13:59.122Z,0.87
2023-02-25T11:16:28.881Z,1.13
2023-02-25T11:18:59.581Z,1.20
2023-02-25T11:21:44.741Z,1.30
2023-02-25T11:24:15.505Z,1.10
2023-02-25T11:26:45.774Z,3.53
2023-02-25T11:29:15.347Z,1.70
2023-02-25T11:31:45.285Z,3.08
2023-02-25T11:34:20.881Z,1.98
2023-02-25T11:36:50.782Z,1.58
2023-02-25T11:39:20.737Z,1.15
2023-02-25T11:41:50.154Z,0.85
2023-02-25T11:44:22.769Z,1.50
2023-02-25T11:46:58.091Z,1.55
2023-02-25T11:49:36.262Z,1.10
2023-02-25T11:52:11.940Z,1.10
2023-02-25T11:54:46.799Z,1.02
2023-02-25T11:57:24.858Z,1.10
2023-02-25T12:00:03.281Z,1.48
2023-02-25T12:02:48.852Z,1.70
2023-02-25T12:05:34.853Z,1.80
2023-02-25T12:08:29.910Z,1.60
2023-02-25T12:11:29.708Z,1.65
2023-02-25T12:14:25.308Z,1.50
2023-02-25T12:17:40.162Z,2.08
2023-02-25T12:20:37.207Z,2.28
2023-02-25T12:23:27.702Z,1.00
2023-02-25T12:26:05.096Z,1.52
2023-02-25T12:28:49.424Z,1.63
2023-02-25T12:31:41.775Z,1.33
2023-02-25T12:34:24.436Z,1.35
2023-02-25T12:37:05.924Z,1.40
2023-02-25T12:40:05.364Z,1.38
2023-02-25T12:42:59.018Z,1.50
2023-02-25T12:46:07.613Z,1.60
2023-02-25T12:48:59.674Z,0.85
2023-02-25T12:54:19.942Z,1.10
2023-02-25T12:57:07.992Z,1.33
2023-02-25T12:59:53.726Z,1.85
2023-02-25T13:02:57.974Z,2.40
2023-02-25T13:05:54.832Z,0.90
2023-02-25T13:09:01.886Z,1.40
2023-02-25T13:12:09.920Z,1.40
2023-02-25T13:14:43.739Z,0.95
2023-02-25T13:17:32.298Z,1.27
2023-02-25T13:20:22.645Z,0.93
2023-02-25T13:23:02.354Z,0.88
2023-02-25T13:25:48.073Z,1.40
2023-02-25T13:28:39.520Z,1.10
2023-02-25T13:31:13.527Z,1.10
2023-02-25T13:34:09.276Z,1.10
2023-02-25T13:36:55.827Z,1.95
2023-02-25T13:39:35.489Z,1.23
2023-02-25T13:42:23.601Z,1.45
2023-02-25T13:45:18.633Z,1.40
2023-02-25T13:47:59.841Z,1.52
2023-02-25T13:50:42.888Z,1.02
2023-02-25T13:53:30.784Z,1.23
2023-02-25T13:56:20.737Z,1.20
2023-02-25T13:59:17.550Z,1.00
2023-02-25T14:01:57.374Z,1.30
2023-02-25T14:04:44.947Z,1.50
2023-02-25T14:07:49.141Z,1.83
2023-02-25T14:10:28.914Z,1.55
2023-02-25T14:13:17.492Z,2.75
2023-02-25T14:15:57.729Z,1.80
2023-02-25T14:18:44.547Z,1.30
2023-02-25T14:21:35.828Z,1.85
2023-02-25T14:24:09.059Z,1.63
2023-02-25T14:26:40.606Z,1.75
2023-02-25T14:29:20.769Z,2.10
2023-02-25T14:32:10.131Z,1.88
2023-02-25T14:34:48.887Z,0.93
2023-02-25T14:37:31.887Z,1.48
2023-02-25T14:40:12.865Z,1.52
2023-02-25T14:42:56.081Z,1.43
2023-02-25T14:45:28.671Z,1.20
2023-02-25T14:48:01.986Z,2.28
2023-02-25T14:50:37.907Z,1.35
2023-02-25T14:53:33.822Z,3.70
2023-02-25T14:56:17.495Z,2.03
2023-02-25T14:59:16.194Z,1.38
2023-02-25T15:02:06.521Z,1.67
2023-02-25T15:04:55.729Z,1.60
2023-02-25T15:07:54.112Z,1.70
2023-02-25T15:10:53.635Z,1.90
2023-02-25T15:13:45.506Z,2.42
2023-02-25T15:16:42.462Z,2.00
2023-02-25T15:19:37.694Z,1.33
2023-02-25T15:22:21.114Z,1.80
2023-02-25T15:24:51.410Z,1.55
2023-02-25T15:27:49.392Z,1.25
2023-02-25T15:30:18.951Z,1.50
2023-02-25T15:33:06.587Z,1.63
2023-02-25T15:35:59.203Z,1.23
2023-02-25T15:38:41.668Z,1.08
2023-02-25T15:41:45.356Z,1.70
2023-02-25T15:44:37.366Z,1.45
2023-02-25T15:49:53.845Z,1.33
2023-02-25T15:52:55.674Z,1.30
2023-02-25T15:55:37.868Z,2.22
2023-02-25T15:58:43.870Z,1.40
2023-02-25T16:01:36.887Z,0.90
2023-02-25T16:04:33.384Z,1.33
2023-02-25T16:07:05.955Z,1.23
2023-02-25T16:12:06.909Z,1.63
2023-02-25T16:14:36.214Z,1.02
2023-02-25T16:17:14.337Z,1.00
2023-02-25T16:19:42.669Z,1.15
2023-02-25T16:22:16.062Z,0.95
2023-02-25T16:24:47.319Z,1.10
2023-02-25T16:27:23.786Z,1.30
2023-02-25T16:29:58.880Z,0.80
2023-02-25T16:32:38.656Z,0.90
2023-02-25T16:35:12.105Z,1.08
2023-02-25T16:37:45.799Z,1.38
2023-02-25T16:40:17.446Z,1.00
2023-02-25T16:42:45.611Z,1.00
2023-02-25T16:45:23.859Z,1.25
2023-02-25T16:47:57.672Z,1.10
2023-02-25T16:50:26.686Z,1.15
2023-02-25T16:52:54.763Z,0.95
2023-02-25T16:55:24.996Z,1.02
2023-02-25T16:58:03.206Z,1.10
2023-02-25T17:00:30.913Z,1.15
2023-02-25T17:03:01.328Z,0.80
2023-02-25T17:05:30.659Z,1.00
2023-02-25T17:07:59.508Z,0.60
2023-02-25T17:10:30.071Z,0.90
2023-02-25T17:12:59.700Z,0.90
2023-02-25T17:15:29.494Z,1.08
2023-02-25T17:18:06.204Z,1.38
2023-02-25T17:20:34.311Z,1.05
2023-02-25T17:23:07.854Z,1.00
2023-02-25T17:25:38.912Z,1.15
2023-02-25T17:28:08.688Z,0.60
2023-02-25T17:30:39.232Z,1.55
2023-02-25T17:33:18.671Z,0.88
2023-02-25T17:35:47.460Z,1.10
2023-02-25T17:38:19.708Z,1.38
2023-02-25T17:40:47.558Z,1.13
2023-02-25T17:43:19.916Z,1.00
2023-02-25T17:45:58.368Z,0.82
2023-02-25T17:48:29.906Z,0.70
2023-02-25T17:51:00.914Z,1.10
2023-02-25T17:53:37.144Z,0.60
2023-02-25T17:56:15.002Z,0.85
2023-02-25T17:58:43.954Z,0.70
2023-02-25T18:01:20.754Z,0.63
2023-02-25T18:19:38.524Z,0.80
2023-02-25T18:26:15.972Z,0.60
2023-02-25T18:32:38.217Z,0.60
2023-02-25T18:35:07.981Z,0.70
2023-02-25T18:37:35.274Z,0.77
2023-02-25T18:40:02.856Z,0.70
2023-02-25T18:42:30.511Z,0.70
2023-02-25T18:44:58.078Z,0.70
2023-02-25T18:47:25.315Z,1.00
2023-02-25T18:49:52.551Z,1.05
2023-02-25T18:52:24.708Z,1.63
2023-02-25T18:54:51.964Z,1.70
2023-02-25T18:57:22.449Z,1.52
2023-02-25T18:59:50.535Z,2.10
2023-02-25T19:02:25.947Z,1.08
2023-02-25T19:04:53.933Z,1.20
2023-02-25T19:07:24.540Z,1.30
2023-02-25T19:09:51.862Z,0.90
2023-02-25T19:12:20.539Z,0.77
2023-02-25T19:14:52.042Z,0.80
2023-02-25T19:17:19.301Z,0.85
2023-02-25T19:19:46.615Z,0.98
2023-02-25T19:22:14.232Z,0.80
2023-02-25T19:32:34.460Z,0.70
2023-02-25T19:35:01.687Z,0.90
2023-02-25T19:37:28.924Z,0.90
2023-02-25T19:39:56.152Z,1.08
2023-02-25T19:42:23.407Z,0.70
2023-02-25T19:44:50.588Z,0.70
2023-02-25T19:47:17.811Z,0.93
2023-02-25T19:49:46.467Z,0.70
2023-02-25T19:52:13.702Z,0.65
2023-02-25T19:54:41.184Z,0.90
2023-02-25T19:57:08.494Z,0.80
2023-02-25T19:59:35.686Z,1.45
2023-02-25T20:02:03.142Z,0.75
2023-02-25T20:04:30.843Z,1.05
2023-02-25T20:06:59.443Z,1.40
2023-02-25T20:09:26.750Z,2.50
2023-02-25T20:11:53.982Z,2.30
2023-02-25T20:14:21.253Z,3.47
2023-02-25T20:16:48.786Z,2.30
2023-02-25T20:19:16.504Z,4.07
2023-02-25T20:21:43.747Z,3.53
2023-02-25T20:24:12.434Z,3.67
2023-02-25T20:26:40.107Z,2.78
2023-02-25T20:29:07.319Z,2.30
2023-02-25T20:31:34.588Z,2.53
2023-02-25T20:34:04.727Z,1.20
2023-02-25T20:36:38.692Z,2.10
2023-02-25T20:39:25.421Z,1.90
2023-02-25T20:41:52.953Z,2.15
2023-02-25T20:44:20.754Z,2.60
2023-02-25T20:46:48.401Z,2.92
2023-02-25T20:49:17.459Z,2.97
2023-02-25T20:51:46.301Z,5.05
2023-02-25T20:54:17.100Z,36.88
2023-02-25T20:56:45.028Z,29.17
2023-02-25T20:59:13.982Z,6.65
2023-02-25T21:01:42.064Z,2.78
2023-02-25T21:04:09.327Z,4.43
2023-02-25T21:06:36.822Z,7.50
2023-02-25T21:09:05.539Z,8.38
2023-02-25T21:11:34.289Z,8.75
2023-02-25T21:14:01.578Z,9.63
2023-02-25T21:16:28.895Z,10.80
2023-02-25T21:18:56.088Z,6.18
2023-02-25T21:21:23.353Z,6.25
2023-02-25T21:23:50.582Z,5.22
2023-02-25T21:26:17.913Z,4.43
2023-02-25T21:28:46.470Z,4.72
2023-02-25T21:31:15.709Z,3.10
2023-02-25T21:33:42.967Z,5.80
2023-02-25T21:36:11.553Z,3.30
2023-02-25T21:38:39.405Z,3.10
2023-02-25T21:41:08.250Z,2.28
2023-02-25T21:43:35.996Z,1.95
2023-02-25T21:46:06.239Z,1.88
2023-02-25T21:48:34.178Z,2.60
2023-02-25T21:51:01.767Z,2.38
2023-02-25T21:53:28.975Z,2.20
2023-02-25T21:55:58.466Z,2.00
2023-02-25T21:58:27.049Z,2.27
2023-02-25T22:00:54.195Z,1.88
2023-02-25T22:03:23.014Z,2.95
2023-02-25T22:05:50.200Z,1.33
2023-02-25T22:08:17.358Z,1.60
2023-02-25T22:10:44.552Z,1.35
2023-02-25T22:13:11.757Z,1.50
2023-02-25T22:15:38.917Z,3.05
2023-02-25T22:18:06.275Z,1.98
2023-02-25T22:20:34.960Z,2.28
2023-02-25T22:23:02.214Z,1.65
2023-02-25T22:25:29.355Z,2.33
2023-02-25T22:27:56.596Z,1.70
2023-02-25T22:30:23.757Z,2.20
2023-02-25T22:32:50.977Z,1.75
2023-02-25T22:35:18.166Z,1.95
2023-02-25T22:37:46.726Z,1.92
2023-02-25T22:40:13.989Z,1.85
2023-02-25T22:42:41.189Z,1.95
2023-02-25T22:45:09.202Z,1.67
2023-02-25T22:47:36.357Z,1.52
2023-02-25T22:50:03.952Z,2.22
2023-02-25T22:52:31.129Z,1.80
2023-02-25T22:54:59.651Z,1.30
2023-02-25T22:57:26.817Z,1.50
2023-02-25T22:59:54.005Z,1.50
2023-02-25T23:02:21.205Z,1.67
2023-02-25T23:04:48.433Z,1.83
2023-02-25T23:07:15.574Z,1.33
2023-02-25T23:09:42.720Z,1.45
2023-02-25T23:12:11.262Z,1.58
2023-02-25T23:14:38.509Z,2.30
2023-02-25T23:17:05.699Z,2.45
2023-02-25T23:19:34.130Z,2.67
2023-02-25T23:22:01.288Z,2.85
2023-02-25T23:24:28.448Z,3.38
2023-02-25T23:26:59.232Z,3.88
2023-02-25T23:29:27.744Z,4.00
2023-02-25T23:31:55.048Z,3.08
2023-02-25T23:34:23.579Z,3.20
2023-02-25T23:36:53.879Z,2.78
2023-02-25T23:39:21.099Z,4.25
2023-02-25T23:44:20.376Z,4.60
2023-02-25T23:46:49.556Z,5.35
2023-02-25T23:49:17.110Z,4.93
2023-02-25T23:51:46.634Z,4.35
2023-02-25T23:54:16.613Z,3.42
2023-02-25T23:56:44.301Z,4.22
2023-02-25T23:59:11.922Z,3.17
